UPS1273 KRDU-KPHL
Flight info
| Callsign | UPS1273 |
|---|---|
| Flight time | 0h 47m |
| Altitude | 29000 |
| Route | OXFRD5 CARML BBDOL PAATS4 |
| Aircraft | A306/H-SDE3FGHIRWY/LB1 |
Departure
| Time | 2026-04-30 03:06 |
|---|---|
| Airport | Raleigh-Durham International Airport (KRDU) |
Arrival
| Time | 2026-04-30 03:53 |
|---|---|
| Airport | Philadelphia International Airport (KPHL) |
| Time | Latitude | Longitude | Altitude | Speed | Heading |
|---|---|---|---|---|---|
| 2026-04-30 02:37 | 35.88803 | -78.77944 | 414 ft | 0 kts | 135° |
| 2026-04-30 02:56 | 35.88814 | -78.77958 | 414 ft | 4 kts | 136° |
| 2026-04-30 02:56 | 35.88834 | -78.77980 | 421 ft | 4 kts | 141° |
| 2026-04-30 02:57 | 35.88855 | -78.78000 | 414 ft | 4 kts | 139° |
| 2026-04-30 02:57 | 35.88872 | -78.78023 | 417 ft | 4 kts | 100° |
| 2026-04-30 02:57 | 35.88871 | -78.78035 | 408 ft | 1 kts | 46° |
| 2026-04-30 02:57 | 35.88869 | -78.78037 | 408 ft | 0 kts | 46° |
| 2026-04-30 03:01 | 35.88870 | -78.78036 | 427 ft | 1 kts | 46° |
| 2026-04-30 03:01 | 35.88897 | -78.77998 | 418 ft | 11 kts | 54° |
| 2026-04-30 03:01 | 35.88907 | -78.77980 | 415 ft | 1 kts | 54° |
| 2026-04-30 03:02 | 35.88928 | -78.77932 | 418 ft | 12 kts | 64° |
| 2026-04-30 03:02 | 35.88977 | -78.77828 | 414 ft | 14 kts | 51° |
| 2026-04-30 03:02 | 35.89036 | -78.77749 | 420 ft | 12 kts | 45° |
| 2026-04-30 03:02 | 35.89093 | -78.77680 | 417 ft | 11 kts | 44° |
| 2026-04-30 03:03 | 35.89148 | -78.77620 | 419 ft | 10 kts | 36° |
| 2026-04-30 03:03 | 35.89259 | -78.77673 | 421 ft | 9 kts | 315° |
| 2026-04-30 03:03 | 35.89292 | -78.77715 | 426 ft | 5 kts | 314° |
| 2026-04-30 03:04 | 35.89332 | -78.77768 | 420 ft | 13 kts | 313° |
| 2026-04-30 03:04 | 35.89325 | -78.77885 | 419 ft | 6 kts | 226° |
| 2026-04-30 03:04 | 35.89324 | -78.77886 | 419 ft | 0 kts | 226° |
| 2026-04-30 03:05 | 35.89242 | -78.77986 | 419 ft | 48 kts | 224° |
| 2026-04-30 03:05 | 35.88840 | -78.78476 | 425 ft | 111 kts | 224° |
| 2026-04-30 03:05 | 35.88174 | -78.79296 | 427 ft | 162 kts | 226° |
| 2026-04-30 03:05 | 35.87304 | -78.80391 | 785 ft | 186 kts | 225° |
| 2026-04-30 03:06 | 35.86383 | -78.81527 | 1638 ft | 188 kts | 227° |
| 2026-04-30 03:06 | 35.85465 | -78.82641 | 2648 ft | 179 kts | 227° |
| 2026-04-30 03:06 | 35.84564 | -78.83685 | 3506 ft | 183 kts | 227° |
| 2026-04-30 03:06 | 35.83430 | -78.84614 | 4003 ft | 212 kts | 202° |
| 2026-04-30 03:07 | 35.81885 | -78.84651 | 4590 ft | 239 kts | 171° |
| 2026-04-30 03:07 | 35.80328 | -78.83631 | 4911 ft | 272 kts | 142° |
| 2026-04-30 03:07 | 35.79021 | -78.81889 | 5308 ft | 287 kts | 131° |
| 2026-04-30 03:07 | 35.77829 | -78.79861 | 5946 ft | 299 kts | 117° |
| 2026-04-30 03:08 | 35.77321 | -78.77378 | 6823 ft | 303 kts | 90° |
| 2026-04-30 03:08 | 35.77700 | -78.74852 | 7726 ft | 301 kts | 63° |
| 2026-04-30 03:08 | 35.78842 | -78.72720 | 8645 ft | 298 kts | 44° |
| 2026-04-30 03:08 | 35.80272 | -78.70849 | 9554 ft | 301 kts | 39° |
| 2026-04-30 03:09 | 35.81971 | -78.69378 | 10311 ft | 299 kts | 19° |
| 2026-04-30 03:09 | 35.83993 | -78.68628 | 10692 ft | 312 kts | 5° |
| 2026-04-30 03:09 | 35.86194 | -78.68200 | 10997 ft | 330 kts | 2° |
| 2026-04-30 03:09 | 35.88500 | -78.67821 | 11299 ft | 347 kts | 2° |
| 2026-04-30 03:10 | 35.90955 | -78.67422 | 11578 ft | 364 kts | 2° |
| 2026-04-30 03:10 | 35.93517 | -78.67002 | 11930 ft | 377 kts | 3° |
| 2026-04-30 03:10 | 35.96139 | -78.66567 | 12445 ft | 384 kts | 3° |
| 2026-04-30 03:10 | 35.98805 | -78.66123 | 13057 ft | 388 kts | 3° |
| 2026-04-30 03:11 | 36.01493 | -78.65675 | 13656 ft | 392 kts | 3° |
| 2026-04-30 03:11 | 36.04210 | -78.65222 | 14197 ft | 395 kts | 3° |
| 2026-04-30 03:11 | 36.06949 | -78.64766 | 14705 ft | 400 kts | 3° |
| 2026-04-30 03:11 | 36.09687 | -78.64311 | 15215 ft | 404 kts | 3° |
| 2026-04-30 03:12 | 36.12479 | -78.63846 | 15750 ft | 408 kts | 2° |
| 2026-04-30 03:12 | 36.15310 | -78.63374 | 16290 ft | 412 kts | 2° |
| 2026-04-30 03:12 | 36.18156 | -78.62899 | 16816 ft | 415 kts | 2° |
| 2026-04-30 03:12 | 36.21035 | -78.62419 | 17339 ft | 420 kts | 2° |
| 2026-04-30 03:13 | 36.23948 | -78.61933 | 17784 ft | 425 kts | 2° |
| 2026-04-30 03:13 | 36.26891 | -78.61440 | 18255 ft | 428 kts | 2° |
| 2026-04-30 03:13 | 36.29817 | -78.60951 | 18668 ft | 431 kts | 2° |
| 2026-04-30 03:13 | 36.31823 | -78.60615 | 18958 ft | 433 kts | 2° |
| 2026-04-30 03:14 | 36.35795 | -78.59950 | 19528 ft | 436 kts | 2° |
| 2026-04-30 03:14 | 36.38814 | -78.59443 | 19948 ft | 439 kts | 2° |
| 2026-04-30 03:14 | 36.41851 | -78.58857 | 20346 ft | 445 kts | 6° |
| 2026-04-30 03:14 | 36.44872 | -78.57907 | 20779 ft | 450 kts | 10° |
| 2026-04-30 03:15 | 36.46876 | -78.57198 | 21033 ft | 453 kts | 11° |
| 2026-04-30 03:15 | 36.49907 | -78.56106 | 21406 ft | 456 kts | 11° |
| 2026-04-30 03:15 | 36.52960 | -78.55004 | 21801 ft | 458 kts | 11° |
| 2026-04-30 03:15 | 36.56030 | -78.53897 | 22183 ft | 461 kts | 10° |
| 2026-04-30 03:16 | 36.60122 | -78.52425 | 22675 ft | 464 kts | 10° |
| 2026-04-30 03:16 | 36.63233 | -78.51305 | 23033 ft | 467 kts | 10° |
| 2026-04-30 03:16 | 36.66362 | -78.50179 | 23407 ft | 469 kts | 10° |
| 2026-04-30 03:16 | 36.68446 | -78.49429 | 23647 ft | 471 kts | 10° |
| 2026-04-30 03:17 | 36.71596 | -78.48284 | 23925 ft | 474 kts | 11° |
| 2026-04-30 03:17 | 36.74708 | -78.46820 | 24228 ft | 483 kts | 19° |
| 2026-04-30 03:17 | 36.77667 | -78.44758 | 24534 ft | 490 kts | 26° |
| 2026-04-30 03:17 | 36.80549 | -78.42453 | 24803 ft | 493 kts | 27° |
| 2026-04-30 03:18 | 36.83429 | -78.40104 | 25064 ft | 495 kts | 27° |
| 2026-04-30 03:18 | 36.87264 | -78.36974 | 25416 ft | 498 kts | 27° |
| 2026-04-30 03:18 | 36.89221 | -78.35379 | 25582 ft | 499 kts | 27° |
| 2026-04-30 03:18 | 36.92137 | -78.33004 | 25824 ft | 502 kts | 27° |
| 2026-04-30 03:19 | 36.95032 | -78.30646 | 26032 ft | 505 kts | 27° |
| 2026-04-30 03:19 | 36.97978 | -78.28245 | 26273 ft | 506 kts | 26° |
| 2026-04-30 03:19 | 37.00931 | -78.25836 | 26509 ft | 508 kts | 26° |
| 2026-04-30 03:19 | 37.03894 | -78.23418 | 26706 ft | 509 kts | 26° |
| 2026-04-30 03:20 | 37.06865 | -78.20991 | 26970 ft | 511 kts | 26° |
| 2026-04-30 03:20 | 37.09842 | -78.18556 | 27261 ft | 511 kts | 26° |
| 2026-04-30 03:20 | 37.12806 | -78.16128 | 27633 ft | 510 kts | 26° |
| 2026-04-30 03:20 | 37.15779 | -78.13692 | 27968 ft | 509 kts | 26° |
| 2026-04-30 03:21 | 37.18695 | -78.11300 | 28297 ft | 508 kts | 26° |
| 2026-04-30 03:21 | 37.21652 | -78.08872 | 28629 ft | 508 kts | 26° |
| 2026-04-30 03:21 | 37.24608 | -78.06443 | 28834 ft | 508 kts | 25° |
| 2026-04-30 03:21 | 37.27535 | -78.04032 | 28848 ft | 497 kts | 25° |
| 2026-04-30 03:22 | 37.33256 | -77.99317 | 28845 ft | 489 kts | 25° |
| 2026-04-30 03:22 | 37.39208 | -77.95549 | 28828 ft | 473 kts | 11° |
| 2026-04-30 03:23 | 37.45359 | -77.92800 | 28846 ft | 473 kts | 11° |
| 2026-04-30 03:23 | 37.51566 | -77.90045 | 28849 ft | 473 kts | 11° |
| 2026-04-30 03:24 | 37.57772 | -77.87274 | 28873 ft | 473 kts | 10° |
| 2026-04-30 03:24 | 37.63905 | -77.84115 | 28838 ft | 486 kts | 21° |
| 2026-04-30 03:25 | 37.69471 | -77.79174 | 28855 ft | 495 kts | 29° |
| 2026-04-30 03:25 | 37.74976 | -77.73932 | 28856 ft | 495 kts | 29° |
| 2026-04-30 03:26 | 37.80484 | -77.68692 | 28858 ft | 495 kts | 29° |
| 2026-04-30 03:26 | 37.85977 | -77.63427 | 28851 ft | 496 kts | 29° |
| 2026-04-30 03:27 | 37.91436 | -77.58183 | 28838 ft | 496 kts | 29° |
| 2026-04-30 03:27 | 37.96920 | -77.52907 | 28855 ft | 495 kts | 29° |
| 2026-04-30 03:28 | 38.02412 | -77.47613 | 28845 ft | 495 kts | 29° |
| 2026-04-30 03:28 | 38.07910 | -77.42367 | 28845 ft | 493 kts | 27° |
| 2026-04-30 03:29 | 38.13551 | -77.37572 | 28840 ft | 491 kts | 25° |
| 2026-04-30 03:29 | 38.19245 | -77.32773 | 28841 ft | 491 kts | 25° |
| 2026-04-30 03:30 | 38.24929 | -77.27958 | 28840 ft | 491 kts | 25° |
| 2026-04-30 03:30 | 38.30619 | -77.23122 | 28841 ft | 492 kts | 25° |
| 2026-04-30 03:31 | 38.36302 | -77.18280 | 28846 ft | 492 kts | 26° |
| 2026-04-30 03:31 | 38.41536 | -77.12567 | 28888 ft | 505 kts | 38° |
| 2026-04-30 03:32 | 38.46445 | -77.06162 | 28843 ft | 505 kts | 39° |
| 2026-04-30 03:32 | 38.51351 | -76.99738 | 28837 ft | 505 kts | 39° |
| 2026-04-30 03:33 | 38.56256 | -76.93316 | 28836 ft | 505 kts | 39° |
| 2026-04-30 03:33 | 38.61124 | -76.86934 | 28890 ft | 505 kts | 39° |
| 2026-04-30 03:34 | 38.66029 | -76.80492 | 28845 ft | 504 kts | 39° |
| 2026-04-30 03:34 | 38.70393 | -76.73412 | 28842 ft | 518 kts | 58° |
| 2026-04-30 03:35 | 38.71719 | -76.69092 | 28856 ft | 524 kts | 70° |
| 2026-04-30 03:35 | 38.72686 | -76.64658 | 28848 ft | 524 kts | 72° |
| 2026-04-30 03:35 | 38.74542 | -76.55618 | 28852 ft | 525 kts | 73° |
| 2026-04-30 03:36 | 38.76403 | -76.46588 | 28856 ft | 523 kts | 73° |
| 2026-04-30 03:36 | 38.78251 | -76.37641 | 28889 ft | 517 kts | 73° |
| 2026-04-30 03:37 | 38.80081 | -76.28759 | 28856 ft | 514 kts | 73° |
| 2026-04-30 03:37 | 38.81888 | -76.19961 | 28851 ft | 514 kts | 73° |
| 2026-04-30 03:38 | 38.83698 | -76.11111 | 28607 ft | 510 kts | 73° |
| 2026-04-30 03:38 | 38.84586 | -76.06747 | 28207 ft | 500 kts | 73° |
| 2026-04-30 03:38 | 38.85461 | -76.02444 | 27308 ft | 501 kts | 73° |
| 2026-04-30 03:39 | 38.86338 | -75.98117 | 26490 ft | 501 kts | 73° |
| 2026-04-30 03:39 | 38.87209 | -75.93798 | 25687 ft | 499 kts | 73° |
| 2026-04-30 03:39 | 38.88064 | -75.89552 | 24906 ft | 498 kts | 73° |
| 2026-04-30 03:39 | 38.89205 | -75.85393 | 24152 ft | 491 kts | 60° |
| 2026-04-30 03:40 | 38.91090 | -75.81839 | 23514 ft | 476 kts | 44° |
| 2026-04-30 03:40 | 38.93558 | -75.79109 | 22813 ft | 461 kts | 30° |
| 2026-04-30 03:40 | 38.96177 | -75.76809 | 22077 ft | 455 kts | 30° |
| 2026-04-30 03:40 | 38.98784 | -75.74513 | 21149 ft | 455 kts | 30° |
| 2026-04-30 03:41 | 39.01357 | -75.72181 | 20594 ft | 447 kts | 31° |
| 2026-04-30 03:41 | 39.03829 | -75.69907 | 19962 ft | 440 kts | 30° |
| 2026-04-30 03:41 | 39.06495 | -75.68096 | 19240 ft | 429 kts | 14° |
| 2026-04-30 03:41 | 39.09362 | -75.67351 | 18642 ft | 416 kts | 1° |
| 2026-04-30 03:42 | 39.12227 | -75.67026 | 17956 ft | 411 kts | 359° |
| 2026-04-30 03:42 | 39.15065 | -75.66752 | 17320 ft | 406 kts | 359° |
| 2026-04-30 03:42 | 39.17875 | -75.66473 | 16567 ft | 405 kts | 359° |
| 2026-04-30 03:42 | 39.20654 | -75.66186 | 15969 ft | 399 kts | 359° |
| 2026-04-30 03:43 | 39.23417 | -75.65894 | 15255 ft | 397 kts | 360° |
| 2026-04-30 03:43 | 39.26111 | -75.65596 | 14661 ft | 392 kts | 1° |
| 2026-04-30 03:43 | 39.28781 | -75.64798 | 14016 ft | 399 kts | 17° |
| 2026-04-30 03:43 | 39.31323 | -75.63435 | 13393 ft | 392 kts | 15° |
| 2026-04-30 03:44 | 39.33919 | -75.62411 | 12558 ft | 389 kts | 9° |
| 2026-04-30 03:44 | 39.36528 | -75.61592 | 11985 ft | 382 kts | 9° |
| 2026-04-30 03:44 | 39.39089 | -75.60797 | 11504 ft | 374 kts | 9° |
| 2026-04-30 03:44 | 39.41591 | -75.60024 | 10923 ft | 365 kts | 9° |
| 2026-04-30 03:45 | 39.44021 | -75.59274 | 10311 ft | 352 kts | 9° |
| 2026-04-30 03:45 | 39.46364 | -75.58554 | 9751 ft | 340 kts | 9° |
| 2026-04-30 03:45 | 39.48624 | -75.57860 | 9142 ft | 329 kts | 9° |
| 2026-04-30 03:45 | 39.50819 | -75.57182 | 8554 ft | 319 kts | 9° |
| 2026-04-30 03:46 | 39.52908 | -75.56528 | 8006 ft | 308 kts | 9° |
| 2026-04-30 03:46 | 39.54956 | -75.55879 | 7443 ft | 300 kts | 9° |
| 2026-04-30 03:46 | 39.56975 | -75.55235 | 6949 ft | 296 kts | 9° |
| 2026-04-30 03:46 | 39.58943 | -75.54601 | 6475 ft | 287 kts | 9° |
| 2026-04-30 03:47 | 39.60870 | -75.53975 | 6132 ft | 284 kts | 9° |
| 2026-04-30 03:47 | 39.62781 | -75.53352 | 5812 ft | 282 kts | 9° |
| 2026-04-30 03:47 | 39.64693 | -75.52835 | 5458 ft | 279 kts | 2° |
| 2026-04-30 03:47 | 39.66612 | -75.52603 | 5063 ft | 276 kts | 359° |
| 2026-04-30 03:48 | 39.68525 | -75.52428 | 4666 ft | 275 kts | 358° |
| 2026-04-30 03:48 | 39.70412 | -75.52263 | 4260 ft | 275 kts | 358° |
| 2026-04-30 03:48 | 39.72320 | -75.52108 | 3893 ft | 275 kts | 358° |
| 2026-04-30 03:48 | 39.74243 | -75.51960 | 3585 ft | 279 kts | 358° |
| 2026-04-30 03:49 | 39.76174 | -75.51824 | 3277 ft | 276 kts | 358° |
| 2026-04-30 03:49 | 39.78058 | -75.51677 | 2995 ft | 266 kts | 2° |
| 2026-04-30 03:49 | 39.79759 | -75.50927 | 2941 ft | 255 kts | 34° |
| 2026-04-30 03:49 | 39.81042 | -75.49444 | 2966 ft | 238 kts | 50° |
| 2026-04-30 03:50 | 39.81955 | -75.47756 | 2956 ft | 220 kts | 66° |
| 2026-04-30 03:50 | 39.82436 | -75.45917 | 2941 ft | 213 kts | 82° |
| 2026-04-30 03:50 | 39.82762 | -75.44047 | 2711 ft | 212 kts | 81° |
| 2026-04-30 03:50 | 39.83134 | -75.42229 | 2404 ft | 210 kts | 82° |
| 2026-04-30 03:51 | 39.83505 | -75.40411 | 2115 ft | 207 kts | 83° |
| 2026-04-30 03:51 | 39.83863 | -75.38613 | 1826 ft | 204 kts | 82° |
| 2026-04-30 03:51 | 39.84215 | -75.36841 | 1525 ft | 199 kts | 82° |
| 2026-04-30 03:51 | 39.84554 | -75.35171 | 1256 ft | 183 kts | 82° |
| 2026-04-30 03:52 | 39.84862 | -75.33628 | 1022 ft | 170 kts | 82° |
| 2026-04-30 03:52 | 39.85144 | -75.32203 | 795 ft | 156 kts | 80° |
| 2026-04-30 03:52 | 39.85408 | -75.30885 | 588 ft | 144 kts | 80° |
| 2026-04-30 03:52 | 39.85655 | -75.29664 | 405 ft | 140 kts | 79° |
| 2026-04-30 03:53 | 39.85920 | -75.28440 | 237 ft | 143 kts | 80° |
| 2026-04-30 03:53 | 39.86159 | -75.27149 | 55 ft | 150 kts | 79° |
| 2026-04-30 03:53 | 39.86395 | -75.25950 | 32 ft | 113 kts | 75° |
| 2026-04-30 03:53 | 39.86537 | -75.25289 | 31 ft | 47 kts | 60° |
| 2026-04-30 03:54 | 39.86681 | -75.25042 | 31 ft | 13 kts | 70° |
| 2026-04-30 03:54 | 39.86698 | -75.24980 | 30 ft | 0 kts | 69° |
| 2026-04-30 03:55 | 39.86699 | -75.24977 | 30 ft | 2 kts | 73° |
| 2026-04-30 03:55 | 39.86688 | -75.24935 | 31 ft | 7 kts | 134° |
| 2026-04-30 03:56 | 39.86619 | -75.24902 | 31 ft | 13 kts | 165° |
| 2026-04-30 03:56 | 39.86546 | -75.24876 | 31 ft | 8 kts | 165° |
| 2026-04-30 03:56 | 39.86504 | -75.24861 | 31 ft | 6 kts | 166° |
| 2026-04-30 03:56 | 39.86468 | -75.24850 | 31 ft | 5 kts | 167° |
| 2026-04-30 03:57 | 39.86436 | -75.24840 | 31 ft | 5 kts | 166° |
| 2026-04-30 03:57 | 39.86396 | -75.24827 | 31 ft | 10 kts | 165° |
| 2026-04-30 03:57 | 39.86338 | -75.24808 | 31 ft | 6 kts | 170° |
| 2026-04-30 03:57 | 39.86312 | -75.24818 | 31 ft | 3 kts | 212° |
| 2026-04-30 03:58 | 39.86290 | -75.24856 | 31 ft | 11 kts | 242° |
| 2026-04-30 03:58 | 39.86256 | -75.24995 | 31 ft | 18 kts | 257° |
| 2026-04-30 03:58 | 39.86232 | -75.25127 | 31 ft | 13 kts | 256° |
| 2026-04-30 03:58 | 39.86223 | -75.25227 | 31 ft | 10 kts | 265° |
| 2026-04-30 03:59 | 39.86201 | -75.25335 | 31 ft | 15 kts | 249° |
| 2026-04-30 03:59 | 39.86124 | -75.25432 | 31 ft | 17 kts | 173° |
| 2026-04-30 03:59 | 39.86104 | -75.25334 | 31 ft | 10 kts | 73° |
| 2026-04-30 03:59 | 39.86125 | -75.25239 | 31 ft | 11 kts | 72° |
| 2026-04-30 04:00 | 39.86155 | -75.25221 | 31 ft | 4 kts | 0° |
| 2026-04-30 04:00 | 39.86167 | -75.25228 | 31 ft | 0 kts | 332° |